createdAt,value
2018-12-06T00:01:08.086Z,8.70
2018-12-06T00:03:45.015Z,8.70
2018-12-06T00:06:20.799Z,8.70
2018-12-06T00:08:56.783Z,8.70
2018-12-06T00:11:32.634Z,8.70
2018-12-06T00:14:08.438Z,8.70
2018-12-06T00:16:54.314Z,8.70
2018-12-06T00:19:30.372Z,8.70
2018-12-06T00:22:06.164Z,8.80
2018-12-06T00:24:42.212Z,8.80
2018-12-06T00:27:19.003Z,8.80
2018-12-06T00:30:06.727Z,8.80
2018-12-06T00:32:43.306Z,8.80
2018-12-06T00:35:19.879Z,8.80
2018-12-06T00:37:55.958Z,8.80
2018-12-06T00:40:33.313Z,8.80
2018-12-06T00:43:09.623Z,8.80
2018-12-06T00:45:44.923Z,8.70
2018-12-06T00:48:20.757Z,8.70
2018-12-06T00:50:56.883Z,8.70
2018-12-06T00:53:33.677Z,8.80
2018-12-06T00:56:10.334Z,8.80
2018-12-06T00:58:46.174Z,8.80
2018-12-06T01:01:22.112Z,8.80
2018-12-06T01:03:57.468Z,8.90
2018-12-06T01:06:33.337Z,8.90
2018-12-06T01:09:10.142Z,8.90
2018-12-06T01:11:46.008Z,8.90
2018-12-06T01:14:28.087Z,8.90
2018-12-06T01:17:04.049Z,8.90
2018-12-06T01:19:39.800Z,8.90
2018-12-06T01:22:15.891Z,8.90
2018-12-06T01:24:51.876Z,8.90
2018-12-06T01:27:28.499Z,8.90
2018-12-06T01:30:05.052Z,9.00
2018-12-06T01:32:41.506Z,9.00
2018-12-06T01:35:17.174Z,9.00
2018-12-06T01:37:53.310Z,9.00
2018-12-06T01:40:29.919Z,9.00
2018-12-06T01:43:06.216Z,9.00
2018-12-06T01:45:42.315Z,9.00
2018-12-06T01:48:19.273Z,9.00
2018-12-06T01:50:55.844Z,9.00
2018-12-06T01:53:31.754Z,9.00
2018-12-06T01:56:07.543Z,9.10
2018-12-06T01:58:43.435Z,9.10
2018-12-06T02:01:20.191Z,9.10
2018-12-06T02:03:56.336Z,9.10
2018-12-06T02:06:32.856Z,9.10
2018-12-06T02:09:10.155Z,9.10
2018-12-06T02:11:46.969Z,9.10
2018-12-06T02:14:22.940Z,9.10
2018-12-06T02:16:58.913Z,9.20
2018-12-06T02:19:34.943Z,9.20
2018-12-06T02:22:11.649Z,9.20
2018-12-06T02:24:47.633Z,9.20
2018-12-06T02:27:23.468Z,9.20
2018-12-06T02:29:59.368Z,9.20
2018-12-06T02:32:36.090Z,9.20
2018-12-06T02:35:12.109Z,9.20
2018-12-06T02:37:49.418Z,9.30
2018-12-06T02:40:25.808Z,9.30
2018-12-06T02:43:01.642Z,9.30
2018-12-06T02:45:37.523Z,9.30
2018-12-06T02:48:13.319Z,9.30
2018-12-06T02:50:49.199Z,9.30
2018-12-06T02:53:24.822Z,9.30
2018-12-06T02:56:01.035Z,9.40
2018-12-06T02:58:37.614Z,9.40
2018-12-06T03:01:13.565Z,9.30
2018-12-06T03:03:49.533Z,9.40
2018-12-06T03:06:25.425Z,9.40
2018-12-06T03:09:01.184Z,9.40
2018-12-06T03:11:41.054Z,9.40
2018-12-06T03:14:17.144Z,9.40
2018-12-06T03:16:52.892Z,9.40
2018-12-06T03:19:28.989Z,9.40
2018-12-06T03:22:04.770Z,9.40
2018-12-06T03:24:40.739Z,9.50
2018-12-06T03:27:16.427Z,9.50
2018-12-06T03:29:52.398Z,9.50
2018-12-06T03:32:28.483Z,9.50
2018-12-06T03:35:04.655Z,9.50
2018-12-06T03:37:41.294Z,9.50
2018-12-06T03:40:18.022Z,9.50
2018-12-06T03:42:53.150Z,9.60
2018-12-06T03:45:28.881Z,9.60
2018-12-06T03:48:04.983Z,9.60
2018-12-06T03:50:40.922Z,9.60
2018-12-06T03:53:16.556Z,9.60
2018-12-06T03:55:52.366Z,9.60
2018-12-06T03:58:28.288Z,9.70
2018-12-06T04:01:04.337Z,9.70
2018-12-06T04:03:40.170Z,9.70
2018-12-06T04:06:16.359Z,9.70
2018-12-06T04:08:54.920Z,9.70
2018-12-06T04:11:31.256Z,9.80
2018-12-06T04:14:08.399Z,9.80
2018-12-06T04:16:45.213Z,9.80
2018-12-06T04:19:21.595Z,9.90
2018-12-06T04:21:57.822Z,9.90
2018-12-06T04:24:34.246Z,9.90
2018-12-06T04:27:10.199Z,9.90
2018-12-06T04:29:46.998Z,9.90
2018-12-06T04:32:22.889Z,10.00
2018-12-06T04:35:00.213Z,9.90
2018-12-06T04:37:36.547Z,10.00
2018-12-06T04:40:12.662Z,10.00
2018-12-06T04:42:47.478Z,10.00
2018-12-06T04:45:23.411Z,10.00
2018-12-06T04:47:59.621Z,10.10
2018-12-06T04:50:36.233Z,10.10
2018-12-06T04:53:11.982Z,10.10
2018-12-06T04:55:48.090Z,10.10
2018-12-06T04:58:23.938Z,10.10
2018-12-06T05:00:59.815Z,10.20
2018-12-06T05:03:35.707Z,10.20
2018-12-06T05:06:11.554Z,10.20
2018-12-06T05:08:49.589Z,10.20
2018-12-06T05:11:27.698Z,10.30
2018-12-06T05:14:03.767Z,10.30
2018-12-06T05:16:39.636Z,10.30
2018-12-06T05:19:15.423Z,10.30
2018-12-06T05:21:52.196Z,10.40
2018-12-06T05:24:27.492Z,10.40
2018-12-06T05:27:03.710Z,10.40
2018-12-06T05:29:39.613Z,10.40
2018-12-06T05:32:15.652Z,10.50
2018-12-06T05:34:52.347Z,10.50
2018-12-06T05:37:28.042Z,10.50
2018-12-06T05:40:04.706Z,10.60
2018-12-06T05:42:41.001Z,10.60
2018-12-06T05:45:17.058Z,10.50
2018-12-06T05:47:52.958Z,10.60
2018-12-06T05:50:29.613Z,10.60
2018-12-06T05:53:05.514Z,10.60
2018-12-06T05:55:41.459Z,10.60
2018-12-06T05:58:17.166Z,10.60
2018-12-06T06:00:53.418Z,10.60
2018-12-06T06:03:30.005Z,10.70
2018-12-06T06:06:06.151Z,10.70
2018-12-06T06:08:41.971Z,10.70
2018-12-06T06:11:17.865Z,10.70
2018-12-06T06:13:54.579Z,10.70
2018-12-06T06:16:32.152Z,10.70
2018-12-06T06:19:08.266Z,10.70
2018-12-06T06:21:45.116Z,10.70
2018-12-06T06:24:20.776Z,10.70
2018-12-06T06:26:56.942Z,10.70
2018-12-06T06:29:32.911Z,10.70
2018-12-06T06:32:08.882Z,10.70
2018-12-06T06:34:44.605Z,10.80
2018-12-06T06:37:20.604Z,10.80
2018-12-06T06:39:56.233Z,10.80
2018-12-06T06:42:32.406Z,10.70
2018-12-06T06:45:08.202Z,10.80
2018-12-06T06:47:43.985Z,10.80
2018-12-06T06:50:19.822Z,10.80
2018-12-06T06:52:58.870Z,10.80
2018-12-06T06:55:36.334Z,10.80
2018-12-06T06:58:13.951Z,10.80
2018-12-06T07:00:49.723Z,10.80
2018-12-06T07:03:25.528Z,10.80
2018-12-06T07:06:01.463Z,10.80
2018-12-06T07:08:37.433Z,10.80
2018-12-06T07:11:13.123Z,10.80
2018-12-06T07:13:48.983Z,10.80
2018-12-06T07:16:24.873Z,10.90
2018-12-06T07:19:00.803Z,10.80
2018-12-06T07:21:36.620Z,10.80
2018-12-06T07:24:13.617Z,10.80
2018-12-06T07:26:50.471Z,10.80
2018-12-06T07:29:26.558Z,10.80
2018-12-06T07:32:02.498Z,10.90
2018-12-06T07:34:38.208Z,10.90
2018-12-06T07:37:15.305Z,10.90
2018-12-06T07:39:51.263Z,10.90
2018-12-06T07:42:27.183Z,10.90
2018-12-06T07:45:03.144Z,10.90
2018-12-06T07:47:38.971Z,10.90
2018-12-06T07:50:14.723Z,10.90
2018-12-06T07:52:50.647Z,10.90
2018-12-06T07:55:27.232Z,10.90
2018-12-06T07:58:03.191Z,10.90
2018-12-06T08:00:38.906Z,10.90
2018-12-06T08:03:14.914Z,11.00
2018-12-06T08:05:50.882Z,10.90
2018-12-06T08:08:27.070Z,11.00
2018-12-06T08:11:03.159Z,11.00
2018-12-06T08:13:39.843Z,11.00
2018-12-06T08:16:15.689Z,11.00
2018-12-06T08:18:51.854Z,11.00
2018-12-06T08:21:28.642Z,11.00
2018-12-06T08:24:04.519Z,11.00
2018-12-06T08:26:40.473Z,11.00
2018-12-06T08:29:17.388Z,11.00
2018-12-06T08:31:53.279Z,11.00
2018-12-06T08:34:28.974Z,11.00
2018-12-06T08:37:04.875Z,11.00
2018-12-06T08:39:40.804Z,11.10
2018-12-06T08:42:17.494Z,11.10
2018-12-06T08:44:52.399Z,11.10
2018-12-06T08:47:28.167Z,11.00
2018-12-06T08:50:04.590Z,11.10
2018-12-06T08:52:40.891Z,11.10
2018-12-06T08:55:16.684Z,11.10
2018-12-06T08:57:52.934Z,11.10
2018-12-06T09:00:29.590Z,11.10
2018-12-06T09:03:05.373Z,11.10
2018-12-06T09:05:41.271Z,11.10
2018-12-06T09:08:17.235Z,11.10
2018-12-06T09:10:53.926Z,11.10
2018-12-06T09:13:29.865Z,11.10
2018-12-06T09:16:05.883Z,11.10
2018-12-06T09:18:42.610Z,11.20
2018-12-06T09:21:18.651Z,11.10
2018-12-06T09:23:55.345Z,11.10
2018-12-06T09:26:32.007Z,11.20
2018-12-06T09:29:08.966Z,11.20
2018-12-06T09:31:44.730Z,11.10
2018-12-06T09:34:20.634Z,11.20
2018-12-06T09:36:56.562Z,11.10
2018-12-06T09:39:32.414Z,11.10
2018-12-06T09:42:08.398Z,11.20
2018-12-06T09:44:43.243Z,11.20
2018-12-06T09:47:19.299Z,11.10
2018-12-06T09:49:55.225Z,11.10
2018-12-06T09:52:31.236Z,11.20
2018-12-06T09:55:07.188Z,11.20
2018-12-06T09:57:45.219Z,11.20
2018-12-06T10:00:21.825Z,11.20
2018-12-06T10:02:58.691Z,11.20
2018-12-06T10:05:34.739Z,11.20
2018-12-06T10:08:10.443Z,11.20
2018-12-06T10:10:48.743Z,11.30
2018-12-06T10:13:24.538Z,11.30
2018-12-06T10:16:01.403Z,11.30
2018-12-06T10:18:37.239Z,11.30
2018-12-06T10:21:13.493Z,11.30
2018-12-06T10:23:49.314Z,11.30
2018-12-06T10:26:25.249Z,11.30
2018-12-06T10:29:02.364Z,11.30
2018-12-06T10:31:38.764Z,11.30
2018-12-06T10:34:14.724Z,11.30
2018-12-06T10:36:50.859Z,11.30
2018-12-06T10:40:02.742Z,11.40
2018-12-06T10:42:38.469Z,11.40
2018-12-06T10:45:14.326Z,11.40
2018-12-06T10:47:50.591Z,11.40
2018-12-06T10:50:26.791Z,11.40
2018-12-06T10:53:02.447Z,11.50
2018-12-06T10:55:38.384Z,11.50
2018-12-06T10:58:14.119Z,11.50
2018-12-06T11:00:57.351Z,11.50
2018-12-06T11:03:37.943Z,11.50
2018-12-06T11:06:13.848Z,11.60
2018-12-06T11:08:49.493Z,11.60
2018-12-06T11:11:26.498Z,11.60
2018-12-06T11:14:04.387Z,11.50
2018-12-06T11:16:40.794Z,11.50
2018-12-06T11:19:17.190Z,11.60
2018-12-06T11:21:53.411Z,11.60
2018-12-06T11:24:29.447Z,11.60
2018-12-06T11:27:05.579Z,11.60
2018-12-06T11:29:41.446Z,11.60
2018-12-06T11:32:17.509Z,11.70
2018-12-06T11:34:54.098Z,11.70
2018-12-06T11:37:29.827Z,11.70
2018-12-06T11:40:06.447Z,11.70
2018-12-06T11:42:44.874Z,11.70
2018-12-06T11:45:21.459Z,11.60
2018-12-06T11:47:58.232Z,11.60
2018-12-06T11:50:35.997Z,11.60
2018-12-06T11:53:11.786Z,11.60
2018-12-06T11:55:47.726Z,11.60
2018-12-06T11:58:23.852Z,11.60
2018-12-06T12:01:00.433Z,11.60
2018-12-06T12:03:36.304Z,11.60
2018-12-06T12:06:13.114Z,11.60
2018-12-06T12:08:49.211Z,11.60
2018-12-06T12:11:25.393Z,11.60
2018-12-06T12:14:04.702Z,11.60
2018-12-06T12:16:40.946Z,11.70
2018-12-06T12:19:17.507Z,11.70
2018-12-06T12:21:53.360Z,11.70
2018-12-06T12:24:29.186Z,11.70
2018-12-06T12:27:05.742Z,11.60
2018-12-06T12:29:41.872Z,11.60
2018-12-06T12:32:18.660Z,11.60
2018-12-06T12:34:54.432Z,11.60
2018-12-06T12:37:30.464Z,11.60
2018-12-06T12:40:09.283Z,11.60
2018-12-06T12:42:45.635Z,11.60
2018-12-06T12:45:22.313Z,11.60
2018-12-06T12:47:58.084Z,11.60
2018-12-06T12:50:33.816Z,11.60
2018-12-06T12:53:09.924Z,11.50
2018-12-06T12:55:45.816Z,11.60
2018-12-06T12:58:22.362Z,11.60
2018-12-06T13:00:58.358Z,11.50
2018-12-06T13:03:35.132Z,11.50
2018-12-06T13:06:11.011Z,11.50
2018-12-06T13:08:47.293Z,11.50
2018-12-06T13:11:24.310Z,11.50
2018-12-06T13:14:01.165Z,11.50
2018-12-06T13:16:40.766Z,11.40
2018-12-06T13:19:16.542Z,11.40
2018-12-06T13:21:53.548Z,11.40
2018-12-06T13:24:30.802Z,11.40
2018-12-06T13:27:08.063Z,11.40
2018-12-06T13:29:45.780Z,11.40
2018-12-06T13:32:22.941Z,11.30
2018-12-06T13:34:59.674Z,11.30
2018-12-06T13:37:35.705Z,11.40
2018-12-06T13:40:12.141Z,11.30
2018-12-06T13:42:48.519Z,11.30
2018-12-06T13:45:24.092Z,11.20
2018-12-06T13:48:01.118Z,11.20
2018-12-06T13:50:37.197Z,11.20
2018-12-06T13:53:13.682Z,11.20
2018-12-06T13:55:50.892Z,11.20
2018-12-06T13:58:27.328Z,11.20
2018-12-06T14:01:03.886Z,11.30
2018-12-06T14:03:40.802Z,11.20
2018-12-06T14:06:17.868Z,11.20
2018-12-06T14:08:54.393Z,11.20
2018-12-06T14:11:30.481Z,11.20
2018-12-06T14:14:05.836Z,11.20
2018-12-06T14:16:42.270Z,11.20
2018-12-06T14:19:22.509Z,11.20
2018-12-06T14:21:58.995Z,11.20
2018-12-06T14:24:35.725Z,11.20
2018-12-06T14:27:11.599Z,11.20
2018-12-06T14:29:47.385Z,11.20
2018-12-06T14:32:24.520Z,11.20
2018-12-06T14:35:00.315Z,11.20
2018-12-06T14:37:36.134Z,11.20
2018-12-06T14:40:11.636Z,11.20
2018-12-06T14:42:47.648Z,11.20
2018-12-06T14:45:23.377Z,11.30
2018-12-06T14:47:59.032Z,11.30
2018-12-06T14:50:34.717Z,11.30
2018-12-06T14:53:11.796Z,11.30
2018-12-06T14:55:49.972Z,11.30
2018-12-06T14:58:25.828Z,11.30
2018-12-06T15:01:03.207Z,11.30
2018-12-06T15:03:38.667Z,11.30
2018-12-06T15:06:14.595Z,11.30
2018-12-06T15:08:52.399Z,11.30
2018-12-06T15:11:29.486Z,11.30
2018-12-06T15:14:05.779Z,11.30
2018-12-06T15:16:43.790Z,11.30
2018-12-06T15:19:20.014Z,11.30
2018-12-06T15:21:56.593Z,11.30
2018-12-06T15:24:32.826Z,11.30
2018-12-06T15:27:10.234Z,11.30
2018-12-06T15:29:46.034Z,11.30
2018-12-06T15:32:22.983Z,11.20
2018-12-06T15:35:00.751Z,11.20
2018-12-06T15:37:36.959Z,11.20
2018-12-06T15:40:13.468Z,11.20
2018-12-06T15:42:49.984Z,11.30
2018-12-06T15:45:25.011Z,11.30
2018-12-06T15:48:01.650Z,11.30
2018-12-06T15:50:38.600Z,11.30
2018-12-06T15:53:14.874Z,11.30
2018-12-06T15:55:52.116Z,11.30
2018-12-06T15:58:30.700Z,11.30
2018-12-06T16:01:07.091Z,11.30
2018-12-06T16:03:43.940Z,11.30
2018-12-06T16:06:21.127Z,11.30
2018-12-06T16:08:57.358Z,11.30
2018-12-06T16:11:34.067Z,11.30
2018-12-06T16:14:11.203Z,11.40
2018-12-06T16:16:46.944Z,11.40
2018-12-06T16:19:22.385Z,11.40
2018-12-06T16:21:59.614Z,11.40
2018-12-06T16:24:38.520Z,11.40
2018-12-06T16:27:15.315Z,11.40
2018-12-06T16:29:52.911Z,11.50
2018-12-06T16:32:30.367Z,11.40
2018-12-06T16:35:08.224Z,11.40
2018-12-06T16:37:45.223Z,11.40
2018-12-06T16:40:22.266Z,11.40
2018-12-06T16:42:58.983Z,11.40
2018-12-06T16:45:35.046Z,11.50
2018-12-06T16:48:13.178Z,11.50
2018-12-06T16:50:50.509Z,11.50
2018-12-06T16:53:27.038Z,11.50
2018-12-06T16:56:04.872Z,11.40
2018-12-06T16:58:41.729Z,11.40
2018-12-06T17:01:19.204Z,11.40
2018-12-06T17:03:55.421Z,11.40
2018-12-06T17:06:34.368Z,11.40
2018-12-06T17:09:12.387Z,11.50
2018-12-06T17:11:50.074Z,11.50
2018-12-06T17:14:27.603Z,11.50
2018-12-06T17:17:04.955Z,11.50
2018-12-06T17:19:41.861Z,11.50
2018-12-06T17:22:17.812Z,11.60
2018-12-06T17:24:54.758Z,11.60
2018-12-06T17:27:30.064Z,11.60
2018-12-06T17:30:05.815Z,11.60
2018-12-06T17:32:43.454Z,11.60
2018-12-06T17:35:22.995Z,11.70
2018-12-06T17:37:59.959Z,11.60
2018-12-06T17:40:37.087Z,11.70
2018-12-06T17:43:13.575Z,11.60
2018-12-06T17:45:52.601Z,11.60
2018-12-06T17:48:28.985Z,11.60
2018-12-06T17:51:07.063Z,11.60
2018-12-06T17:53:42.995Z,11.60
2018-12-06T17:56:24.231Z,11.60
2018-12-06T17:59:03.699Z,11.60
2018-12-06T18:01:41.308Z,11.60
2018-12-06T18:04:16.749Z,11.60
2018-12-06T18:06:54.777Z,11.60
2018-12-06T18:09:30.637Z,11.70
2018-12-06T18:12:07.182Z,11.70
2018-12-06T18:14:43.499Z,11.70
2018-12-06T18:17:19.501Z,11.70
2018-12-06T18:19:57.922Z,11.70
2018-12-06T18:22:33.771Z,11.70
2018-12-06T18:25:11.048Z,11.70
2018-12-06T18:27:48.989Z,11.70
2018-12-06T18:30:25.533Z,11.70
2018-12-06T18:33:02.807Z,11.70
2018-12-06T18:35:39.731Z,11.70
2018-12-06T18:38:15.701Z,11.70
2018-12-06T18:40:51.311Z,11.70
2018-12-06T18:43:28.374Z,11.60
2018-12-06T18:46:05.050Z,11.60
2018-12-06T18:48:42.028Z,11.60
2018-12-06T18:51:18.408Z,11.60
2018-12-06T18:53:54.078Z,11.50
2018-12-06T18:56:30.351Z,11.50
2018-12-06T18:59:06.862Z,11.40
2018-12-06T19:01:43.816Z,11.40
2018-12-06T19:04:22.451Z,11.30
2018-12-06T19:07:00.367Z,11.40
2018-12-06T19:09:37.942Z,11.30
2018-12-06T19:12:18.527Z,11.30
2018-12-06T19:14:54.451Z,11.30
2018-12-06T19:17:33.487Z,11.30
2018-12-06T19:20:09.750Z,11.30
2018-12-06T19:22:47.021Z,11.30
2018-12-06T19:25:24.619Z,11.20
2018-12-06T19:28:00.831Z,11.20
2018-12-06T19:30:37.381Z,11.30
2018-12-06T19:33:13.597Z,11.30
2018-12-06T19:35:48.859Z,11.30
2018-12-06T19:38:24.903Z,11.30
2018-12-06T19:41:01.662Z,11.30
2018-12-06T19:43:40.850Z,11.40
2018-12-06T19:46:18.256Z,11.40
2018-12-06T19:48:55.697Z,11.40
2018-12-06T19:51:32.052Z,11.40
2018-12-06T19:54:10.303Z,11.50
2018-12-06T19:56:46.806Z,11.40
2018-12-06T19:59:22.936Z,11.40
2018-12-06T20:02:00.695Z,11.50
2018-12-06T20:04:36.869Z,11.50
2018-12-06T20:07:12.673Z,11.50
2018-12-06T20:09:48.651Z,11.50
2018-12-06T20:12:28.151Z,11.50
2018-12-06T20:15:05.003Z,11.50
2018-12-06T20:17:45.666Z,11.40
2018-12-06T20:20:29.205Z,11.50
2018-12-06T20:23:12.253Z,11.40
2018-12-06T20:25:51.054Z,11.40
2018-12-06T20:28:31.025Z,11.40
2018-12-06T20:31:10.237Z,11.40
2018-12-06T20:34:02.471Z,11.40
2018-12-06T20:36:44.432Z,11.40
2018-12-06T20:39:25.723Z,11.50
2018-12-06T20:42:11.986Z,11.40
2018-12-06T20:44:58.091Z,11.50
2018-12-06T20:47:48.280Z,11.50
2018-12-06T20:50:49.501Z,11.50
2018-12-06T20:53:39.170Z,11.50
2018-12-06T20:56:46.447Z,11.50
2018-12-06T20:59:25.752Z,11.50
2018-12-06T21:02:02.152Z,11.50
2018-12-06T21:04:37.949Z,11.60
2018-12-06T21:07:14.757Z,11.60
2018-12-06T21:09:50.497Z,11.60
2018-12-06T21:12:26.187Z,11.60
2018-12-06T21:15:02.189Z,11.60
2018-12-06T21:17:38.241Z,11.60
2018-12-06T21:20:14.206Z,11.60
2018-12-06T21:22:52.871Z,11.60
2018-12-06T21:25:35.808Z,11.60
2018-12-06T21:28:12.403Z,11.70
2018-12-06T21:30:48.144Z,11.70
2018-12-06T21:33:23.915Z,11.70
2018-12-06T21:35:59.574Z,11.70
2018-12-06T21:38:40.393Z,11.70
2018-12-06T21:41:19.128Z,11.70
2018-12-06T21:43:55.619Z,11.70
2018-12-06T21:46:33.671Z,11.70
2018-12-06T21:49:11.542Z,11.70
2018-12-06T21:51:48.444Z,11.70
2018-12-06T21:54:25.976Z,11.70
2018-12-06T21:57:03.435Z,11.70
2018-12-06T21:59:41.084Z,11.70
2018-12-06T22:02:27.683Z,11.70
2018-12-06T22:05:04.499Z,11.70
2018-12-06T22:07:41.043Z,11.70
2018-12-06T22:10:16.721Z,11.70
2018-12-06T22:12:53.442Z,11.70
2018-12-06T22:15:30.192Z,11.70
2018-12-06T22:18:07.011Z,11.70
2018-12-06T22:20:42.845Z,11.70
2018-12-06T22:23:18.649Z,11.70
2018-12-06T22:25:54.524Z,11.60
2018-12-06T22:28:33.968Z,11.60
2018-12-06T22:31:08.219Z,11.60
2018-12-06T22:33:43.990Z,11.60
2018-12-06T22:36:20.182Z,11.60
2018-12-06T22:38:56.666Z,11.60
2018-12-06T22:41:33.392Z,11.70
2018-12-06T22:44:08.712Z,11.60
2018-12-06T22:46:45.258Z,11.70
2018-12-06T22:49:31.794Z,11.60
2018-12-06T22:52:08.802Z,11.70
2018-12-06T22:54:44.568Z,11.70
2018-12-06T22:57:20.299Z,11.70
2018-12-06T22:59:56.198Z,11.70
2018-12-06T23:02:32.101Z,11.70
2018-12-06T23:05:08.955Z,11.70
2018-12-06T23:07:45.581Z,11.70
2018-12-06T23:10:21.486Z,11.70
2018-12-06T23:12:57.236Z,11.70
2018-12-06T23:15:33.093Z,11.70
2018-12-06T23:18:09.051Z,11.70
2018-12-06T23:20:45.729Z,11.60
2018-12-06T23:23:21.844Z,11.70
2018-12-06T23:25:58.458Z,11.60
2018-12-06T23:28:34.598Z,11.70
2018-12-06T23:31:10.397Z,11.60
2018-12-06T23:33:46.381Z,11.60
2018-12-06T23:36:22.545Z,11.60
2018-12-06T23:38:59.093Z,11.60
2018-12-06T23:41:35.068Z,11.60
2018-12-06T23:44:10.090Z,11.70
2018-12-06T23:46:46.669Z,11.70
2018-12-06T23:49:22.779Z,11.70
2018-12-06T23:51:58.722Z,11.70
2018-12-06T23:54:35.507Z,11.70
2018-12-06T23:57:11.508Z,11.70
2018-12-06T23:59:47.959Z,11.70
